createdAt,value
2022-08-01T00:00:11.687Z,61.98
2022-08-01T00:03:00.488Z,62.28
2022-08-01T00:05:30.571Z,62.36
2022-08-01T00:08:01.464Z,62.53
2022-08-01T00:10:30.290Z,62.68
2022-08-01T00:12:58.941Z,62.70
2022-08-01T00:15:28.407Z,62.91
2022-08-01T00:17:56.816Z,63.06
2022-08-01T00:20:24.806Z,63.08
2022-08-01T00:22:53.075Z,63.16
2022-08-01T00:25:20.913Z,63.28
2022-08-01T00:28:04.116Z,63.27
2022-08-01T00:30:32.432Z,63.41
2022-08-01T00:33:00.403Z,63.47
2022-08-01T00:35:28.982Z,63.77
2022-08-01T00:37:56.840Z,63.80
2022-08-01T00:40:28.105Z,63.91
2022-08-01T00:42:56.695Z,64.07
2022-08-01T00:45:25.618Z,64.30
2022-08-01T00:47:54.924Z,64.34
2022-08-01T00:50:24.821Z,64.55
2022-08-01T00:52:54.596Z,64.67
2022-08-01T00:55:22.421Z,64.85
2022-08-01T00:58:04.752Z,65.08
2022-08-01T01:00:53.097Z,65.15
2022-08-01T01:03:58.131Z,65.27
2022-08-01T01:06:28.143Z,65.22
2022-08-01T01:09:10.398Z,65.30
2022-08-01T01:11:49.819Z,65.44
2022-08-01T01:14:29.291Z,65.62
2022-08-01T01:17:01.695Z,65.63
2022-08-01T01:19:43.820Z,65.68
2022-08-01T01:22:24.163Z,65.72
2022-08-01T01:25:06.214Z,65.83
2022-08-01T01:27:57.422Z,65.89
2022-08-01T01:30:29.841Z,66.22
2022-08-01T01:33:02.180Z,66.34
2022-08-01T01:35:36.688Z,66.33
2022-08-01T01:38:18.701Z,66.40
2022-08-01T01:40:49.021Z,66.50
2022-08-01T01:43:18.708Z,66.60
2022-08-01T01:45:48.427Z,66.61
2022-08-01T01:48:19.824Z,66.52
2022-08-01T01:50:49.349Z,66.65
2022-08-01T01:53:21.856Z,66.65
2022-08-01T01:55:53.317Z,66.67
2022-08-01T01:58:24.564Z,66.85
2022-08-01T02:00:56.258Z,66.79
2022-08-01T02:03:29.656Z,66.86
2022-08-01T02:05:59.803Z,66.67
2022-08-01T02:08:31.846Z,66.79
2022-08-01T02:11:20.872Z,66.82
2022-08-01T02:13:54.565Z,66.67
2022-08-01T02:16:25.794Z,66.56
2022-08-01T02:18:55.105Z,66.53
2022-08-01T02:21:43.180Z,66.45
2022-08-01T02:24:15.792Z,66.30
2022-08-01T02:26:49.183Z,66.27
2022-08-01T02:29:25.641Z,66.51
2022-08-01T02:31:55.893Z,66.42
2022-08-01T02:34:28.172Z,66.31
2022-08-01T02:36:57.881Z,66.23
2022-08-01T02:39:29.514Z,66.25
2022-08-01T02:42:01.806Z,66.36
2022-08-01T02:44:39.094Z,66.36
2022-08-01T02:47:07.879Z,66.51
2022-08-01T02:49:46.180Z,66.71
2022-08-01T02:52:19.014Z,66.79
2022-08-01T02:54:50.619Z,66.91
2022-08-01T02:57:22.715Z,66.98
2022-08-01T02:59:57.208Z,67.01
2022-08-01T03:02:26.309Z,66.85
2022-08-01T03:04:57.085Z,66.83
2022-08-01T03:07:34.264Z,66.96
2022-08-01T03:10:03.893Z,67.07
2022-08-01T03:12:35.574Z,67.21
2022-08-01T03:15:06.364Z,67.31
2022-08-01T03:17:39.461Z,67.37
2022-08-01T03:20:13.491Z,67.20
2022-08-01T03:22:44.689Z,67.54
2022-08-01T03:25:16.687Z,67.52
2022-08-01T03:27:49.192Z,67.53
2022-08-01T03:30:20.452Z,67.55
2022-08-01T03:32:48.794Z,67.56
2022-08-01T03:35:17.186Z,67.40
2022-08-01T03:38:14.749Z,67.37
2022-08-01T03:40:46.230Z,67.30
2022-08-01T03:43:22.534Z,67.35
2022-08-01T03:45:54.288Z,67.37
2022-08-01T03:48:30.414Z,67.23
2022-08-01T03:51:01.127Z,67.20
2022-08-01T03:53:33.381Z,67.23
2022-08-01T03:56:03.318Z,67.16
2022-08-01T03:58:32.320Z,67.06
2022-08-01T04:01:00.327Z,67.00
2022-08-01T04:03:28.818Z,66.97
2022-08-01T04:05:57.637Z,66.98
2022-08-01T04:08:41.507Z,66.88
2022-08-01T04:11:11.640Z,66.85
2022-08-01T04:13:39.523Z,66.93
2022-08-01T04:16:08.005Z,66.83
2022-08-01T04:18:37.209Z,66.85
2022-08-01T04:21:04.925Z,66.85
2022-08-01T04:23:36.176Z,66.95
2022-08-01T04:26:06.254Z,66.99
2022-08-01T04:28:37.378Z,66.95
2022-08-01T04:31:10.801Z,67.05
2022-08-01T04:33:43.661Z,67.05
2022-08-01T04:36:13.693Z,67.08
2022-08-01T04:38:49.435Z,66.94
2022-08-01T04:41:20.038Z,67.01
2022-08-01T04:43:48.173Z,66.98
2022-08-01T04:46:16.813Z,67.01
2022-08-01T04:48:45.882Z,66.97
2022-08-01T04:51:17.420Z,67.02
2022-08-01T04:53:47.046Z,66.88
2022-08-01T04:56:15.593Z,66.84
2022-08-01T04:58:44.125Z,66.86
2022-08-01T05:01:12.722Z,66.77
2022-08-01T05:03:41.346Z,66.80
2022-08-01T05:06:09.339Z,66.70
2022-08-01T05:08:37.328Z,66.71
2022-08-01T05:11:05.326Z,66.58
2022-08-01T05:13:33.647Z,66.51
2022-08-01T05:16:04.573Z,66.49
2022-08-01T05:18:32.640Z,66.47
2022-08-01T05:21:01.934Z,66.31
2022-08-01T05:23:39.069Z,66.32
2022-08-01T05:26:14.515Z,66.48
2022-08-01T05:28:43.134Z,66.55
2022-08-01T05:31:11.293Z,66.58
2022-08-01T05:33:40.434Z,66.60
2022-08-01T05:36:10.296Z,66.59
2022-08-01T05:38:38.170Z,66.58
2022-08-01T05:41:06.628Z,66.61
2022-08-01T05:43:34.561Z,66.55
2022-08-01T05:46:02.808Z,66.47
2022-08-01T05:48:32.691Z,66.43
2022-08-01T05:51:00.543Z,66.45
2022-08-01T05:53:29.415Z,66.23
2022-08-01T05:55:57.915Z,66.14
2022-08-01T05:58:27.060Z,66.12
2022-08-01T06:00:55.280Z,65.87
2022-08-01T06:03:24.217Z,65.74
2022-08-01T06:05:58.630Z,65.59
2022-08-01T06:08:27.088Z,65.40
2022-08-01T06:10:55.381Z,65.12
2022-08-01T06:13:23.313Z,64.72
2022-08-01T06:15:57.191Z,64.43
2022-08-01T06:18:25.152Z,64.24
2022-08-01T06:20:53.729Z,64.12
2022-08-01T06:23:32.031Z,63.95
2022-08-01T06:26:00.795Z,63.75
2022-08-01T06:28:30.255Z,63.43
2022-08-01T06:31:01.248Z,63.32
2022-08-01T06:33:29.277Z,62.95
2022-08-01T06:35:58.181Z,62.81
2022-08-01T06:38:26.016Z,62.57
2022-08-01T06:40:53.974Z,62.26
2022-08-01T06:43:22.963Z,61.81
2022-08-01T06:45:50.920Z,61.62
2022-08-01T06:48:21.355Z,60.94
2022-08-01T06:50:49.589Z,60.63
2022-08-01T06:53:17.521Z,60.54
2022-08-01T06:55:45.825Z,59.70
2022-08-01T06:58:13.700Z,59.88
2022-08-01T07:00:43.388Z,59.90
2022-08-01T07:03:11.296Z,59.63
2022-08-01T07:05:39.369Z,58.75
2022-08-01T07:08:07.616Z,58.12
2022-08-01T07:10:35.506Z,57.62
2022-08-01T07:13:06.472Z,56.58
2022-08-01T07:15:34.338Z,54.66
2022-08-01T07:18:04.932Z,54.30
2022-08-01T07:20:37.651Z,54.51
2022-08-01T07:23:09.994Z,53.99
2022-08-01T07:25:40.813Z,54.01
2022-08-01T07:28:20.551Z,53.48
2022-08-01T07:30:48.729Z,52.83
2022-08-01T07:33:17.222Z,52.92
2022-08-01T07:35:46.055Z,53.19
2022-08-01T07:38:15.330Z,52.82
2022-08-01T07:40:46.338Z,52.55
2022-08-01T07:43:14.797Z,52.57
2022-08-01T07:45:46.458Z,52.64
2022-08-01T07:48:15.194Z,52.33
2022-08-01T07:50:43.114Z,51.96
2022-08-01T07:53:11.656Z,52.02
2022-08-01T07:55:39.806Z,51.73
2022-08-01T07:58:09.870Z,51.74
2022-08-01T08:00:37.773Z,51.36
2022-08-01T08:03:05.556Z,51.09
2022-08-01T08:05:52.838Z,51.38
2022-08-01T08:08:25.055Z,51.69
2022-08-01T08:10:53.354Z,51.15
2022-08-01T08:13:21.123Z,51.08
2022-08-01T08:15:49.195Z,51.49
2022-08-01T08:18:17.111Z,51.35
2022-08-01T08:20:45.030Z,50.95
2022-08-01T08:23:43.015Z,50.17
2022-08-01T08:26:14.785Z,50.44
2022-08-01T08:28:42.903Z,52.14
2022-08-01T08:31:25.555Z,51.94
2022-08-01T08:33:59.123Z,53.56
2022-08-01T08:36:28.577Z,53.89
2022-08-01T08:39:02.400Z,53.93
2022-08-01T08:41:37.890Z,54.40
2022-08-01T08:44:10.434Z,54.48
2022-08-01T08:46:42.449Z,54.80
2022-08-01T08:49:12.232Z,54.78
2022-08-01T08:51:42.137Z,54.70
2022-08-01T08:54:16.182Z,54.50
2022-08-01T08:56:45.774Z,54.85
2022-08-01T08:59:16.033Z,54.65
2022-08-01T09:01:44.695Z,54.28
2022-08-01T09:04:13.274Z,53.92
2022-08-01T09:06:41.869Z,53.70
2022-08-01T09:09:10.839Z,53.56
2022-08-01T09:11:38.717Z,52.90
2022-08-01T09:14:08.841Z,52.34
2022-08-01T09:16:44.159Z,52.34
2022-08-01T09:19:40.624Z,52.00
2022-08-01T09:22:12.546Z,51.30
2022-08-01T09:24:41.713Z,51.14
2022-08-01T09:27:21.880Z,50.25
2022-08-01T09:30:01.765Z,50.76
2022-08-01T09:32:36.345Z,50.35
2022-08-01T09:35:31.120Z,50.50
2022-08-01T09:38:23.104Z,49.67
2022-08-01T09:40:59.283Z,49.54
2022-08-01T09:43:29.881Z,49.55
2022-08-01T09:46:01.205Z,48.51
2022-08-01T09:48:29.885Z,47.50
2022-08-01T09:51:03.953Z,47.03
2022-08-01T09:53:47.389Z,47.45
2022-08-01T09:56:23.051Z,47.38
2022-08-01T09:59:02.077Z,47.30
2022-08-01T10:01:48.161Z,47.71
2022-08-01T10:04:19.473Z,48.40
2022-08-01T10:06:55.569Z,48.30
2022-08-01T10:09:40.203Z,48.23
2022-08-01T10:12:15.550Z,48.47
2022-08-01T10:14:50.342Z,47.95
2022-08-01T10:17:20.982Z,48.17
2022-08-01T10:19:55.695Z,48.34
2022-08-01T10:22:28.631Z,48.04
2022-08-01T10:25:05.106Z,47.58
2022-08-01T10:27:38.467Z,47.41
2022-08-01T10:30:19.636Z,46.93
2022-08-01T10:32:55.094Z,46.73
2022-08-01T10:35:45.519Z,46.59
2022-08-01T10:38:13.889Z,46.43
2022-08-01T10:40:45.999Z,46.75
2022-08-01T10:43:21.244Z,46.52
2022-08-01T10:45:51.263Z,46.60
2022-08-01T10:48:29.690Z,45.86
2022-08-01T10:51:01.553Z,45.20
2022-08-01T10:53:31.978Z,44.94
2022-08-01T10:56:12.940Z,44.72
2022-08-01T10:58:45.067Z,44.72
2022-08-01T11:01:44.740Z,44.90
2022-08-01T11:04:18.405Z,44.75
2022-08-01T11:07:06.508Z,44.19
2022-08-01T11:09:47.104Z,43.73
2022-08-01T11:12:24.719Z,43.96
2022-08-01T11:14:59.033Z,43.83
2022-08-01T11:17:45.209Z,44.14
2022-08-01T11:20:16.359Z,44.18
2022-08-01T11:23:11.771Z,43.91
2022-08-01T11:26:05.400Z,43.69
2022-08-01T11:28:36.792Z,43.33
2022-08-01T11:31:10.756Z,43.69
2022-08-01T11:33:42.454Z,42.80
2022-08-01T11:36:15.521Z,42.42
2022-08-01T11:38:46.260Z,42.18
2022-08-01T11:41:36.886Z,41.36
2022-08-01T11:44:12.050Z,40.95
2022-08-01T11:46:52.236Z,41.23
2022-08-01T11:49:25.018Z,41.58
2022-08-01T11:52:11.814Z,41.29
2022-08-01T11:54:43.086Z,41.00
2022-08-01T11:57:35.636Z,41.17
2022-08-01T12:00:17.395Z,41.42
2022-08-01T12:02:48.208Z,41.13
2022-08-01T12:05:21.762Z,41.42
2022-08-01T12:07:54.373Z,40.92
2022-08-01T12:10:25.784Z,41.27
2022-08-01T12:13:01.606Z,41.29
2022-08-01T12:15:35.678Z,40.74
2022-08-01T12:18:06.514Z,40.62
2022-08-01T12:20:42.734Z,40.23
2022-08-01T12:23:22.316Z,40.09
2022-08-01T12:25:54.132Z,39.61
2022-08-01T12:28:22.477Z,40.08
2022-08-01T12:30:50.949Z,40.22
2022-08-01T12:33:20.767Z,40.13
2022-08-01T12:35:49.106Z,40.81
2022-08-01T12:38:23.262Z,40.89
2022-08-01T12:40:54.979Z,40.75
2022-08-01T12:43:29.502Z,40.86
2022-08-01T12:46:01.309Z,41.33
2022-08-01T12:48:32.291Z,41.85
2022-08-01T12:51:02.249Z,42.13
2022-08-01T12:53:41.143Z,42.50
2022-08-01T12:56:13.444Z,42.73
2022-08-01T12:58:42.039Z,42.62
2022-08-01T13:01:12.404Z,42.61
2022-08-01T13:03:41.122Z,42.50
2022-08-01T13:06:16.647Z,41.94
2022-08-01T13:08:46.691Z,42.27
2022-08-01T13:11:17.162Z,41.83
2022-08-01T13:13:51.078Z,41.26
2022-08-01T13:16:55.998Z,41.01
2022-08-01T13:19:21.790Z,40.55
2022-08-01T13:21:58.051Z,40.46
2022-08-01T13:24:28.428Z,40.83
2022-08-01T13:27:05.053Z,39.85
2022-08-01T13:29:39.083Z,39.17
2022-08-01T13:32:28.059Z,38.79
2022-08-01T13:35:05.989Z,38.47
2022-08-01T13:37:34.502Z,38.86
2022-08-01T13:40:02.897Z,38.89
2022-08-01T13:42:31.396Z,38.73
2022-08-01T13:44:59.669Z,38.50
2022-08-01T13:47:31.587Z,38.60
2022-08-01T13:50:03.899Z,38.06
2022-08-01T13:52:32.482Z,37.58
2022-08-01T13:55:01.405Z,37.45
2022-08-01T13:57:36.677Z,37.04
2022-08-01T14:00:10.113Z,36.54
2022-08-01T14:02:41.642Z,36.13
2022-08-01T14:05:09.587Z,36.16
2022-08-01T14:07:38.250Z,36.17
2022-08-01T14:10:19.576Z,36.97
2022-08-01T14:12:49.384Z,37.19
2022-08-01T14:15:18.622Z,37.40
2022-08-01T14:18:06.695Z,37.46
2022-08-01T14:20:36.736Z,37.67
2022-08-01T14:23:04.501Z,37.44
2022-08-01T14:26:00.477Z,37.35
2022-08-01T14:28:29.579Z,37.39
2022-08-01T14:30:59.613Z,37.56
2022-08-01T14:33:30.285Z,37.39
2022-08-01T14:36:05.677Z,37.37
2022-08-01T14:38:46.815Z,36.88
2022-08-01T14:41:17.951Z,36.87
2022-08-01T14:43:45.977Z,37.18
2022-08-01T14:46:14.566Z,37.31
2022-08-01T14:48:42.263Z,37.31
2022-08-01T14:51:10.260Z,36.85
2022-08-01T14:53:38.832Z,36.09
2022-08-01T14:56:08.043Z,36.08
2022-08-01T14:58:35.757Z,36.10
2022-08-01T15:01:06.362Z,35.73
2022-08-01T15:03:34.128Z,35.07
2022-08-01T15:06:02.506Z,35.85
2022-08-01T15:08:31.339Z,35.15
2022-08-01T15:10:59.270Z,35.05
2022-08-01T15:13:27.173Z,34.16
2022-08-01T15:15:55.569Z,33.92
2022-08-01T15:18:31.122Z,33.76
2022-08-01T15:21:02.198Z,33.22
2022-08-01T15:23:29.903Z,33.71
2022-08-01T15:25:57.584Z,33.15
2022-08-01T15:28:25.746Z,33.38
2022-08-01T15:30:53.549Z,33.17
2022-08-01T15:33:22.722Z,33.92
2022-08-01T15:35:52.786Z,34.95
2022-08-01T15:38:22.488Z,36.43
2022-08-01T15:40:50.584Z,37.44
2022-08-01T15:43:18.713Z,38.72
2022-08-01T15:45:48.025Z,39.77
2022-08-01T15:48:17.808Z,41.29
2022-08-01T15:50:46.313Z,42.14
2022-08-01T15:53:14.440Z,43.20
2022-08-01T15:55:43.921Z,43.97
2022-08-01T15:58:21.230Z,44.74
2022-08-01T16:00:49.043Z,45.01
2022-08-01T16:03:17.526Z,45.75
2022-08-01T16:05:45.814Z,45.89
2022-08-01T16:08:14.496Z,46.40
2022-08-01T16:10:43.164Z,46.43
2022-08-01T16:13:12.098Z,45.87
2022-08-01T16:15:40.445Z,45.13
2022-08-01T16:18:08.742Z,45.11
2022-08-01T16:20:42.997Z,44.78
2022-08-01T16:23:14.899Z,44.98
2022-08-01T16:25:45.320Z,45.46
2022-08-01T16:28:14.428Z,45.85
2022-08-01T16:30:54.084Z,46.18
2022-08-01T16:33:49.343Z,47.30
2022-08-01T16:36:21.799Z,48.16
2022-08-01T16:38:51.543Z,48.77
2022-08-01T16:41:20.619Z,49.14
2022-08-01T16:43:53.134Z,49.75
2022-08-01T16:46:25.343Z,50.94
2022-08-01T16:48:54.405Z,51.13
2022-08-01T16:51:22.630Z,51.45
2022-08-01T16:53:50.943Z,51.61
2022-08-01T16:56:18.894Z,52.85
2022-08-01T16:58:47.077Z,53.08
2022-08-01T17:02:01.518Z,53.47
2022-08-01T17:04:04.171Z,54.48
2022-08-01T17:06:34.108Z,54.55
2022-08-01T17:09:03.039Z,54.79
2022-08-01T17:11:31.681Z,55.83
2022-08-01T17:13:59.760Z,55.60
2022-08-01T17:16:27.469Z,55.94
2022-08-01T17:18:55.267Z,56.50
2022-08-01T17:21:23.867Z,57.01
2022-08-01T17:23:54.092Z,57.30
2022-08-01T17:26:21.972Z,58.26
2022-08-01T17:28:50.434Z,58.00
2022-08-01T17:31:18.288Z,59.45
2022-08-01T17:33:48.712Z,59.79
2022-08-01T17:36:21.558Z,60.99
2022-08-01T17:38:49.462Z,61.31
2022-08-01T17:41:17.175Z,62.94
2022-08-01T17:43:45.461Z,63.51
2022-08-01T17:46:13.862Z,64.40
2022-08-01T17:48:42.106Z,64.84
2022-08-01T17:51:10.865Z,65.91
2022-08-01T17:53:56.819Z,66.03
2022-08-01T17:56:27.109Z,66.57
2022-08-01T17:58:56.205Z,66.86
2022-08-01T18:01:26.903Z,67.50
2022-08-01T18:03:57.411Z,67.23
2022-08-01T18:06:27.022Z,67.66
2022-08-01T18:08:56.521Z,67.67
2022-08-01T18:11:28.219Z,67.45
2022-08-01T18:13:57.877Z,67.39
2022-08-01T18:16:28.714Z,67.42
2022-08-01T18:18:57.707Z,68.63
2022-08-01T18:21:25.598Z,68.99
2022-08-01T18:23:53.511Z,68.91
2022-08-01T18:26:21.947Z,69.90
2022-08-01T18:28:50.194Z,70.57
2022-08-01T18:31:20.929Z,71.21
2022-08-01T18:33:50.351Z,71.95
2022-08-01T18:36:31.970Z,72.30
2022-08-01T18:39:06.332Z,72.16
2022-08-01T18:41:39.057Z,72.63
2022-08-01T18:44:08.476Z,72.97
2022-08-01T18:46:38.795Z,72.56
2022-08-01T18:49:10.644Z,73.41
2022-08-01T18:51:44.284Z,74.09
2022-08-01T18:54:17.286Z,74.53
2022-08-01T18:56:49.925Z,74.52
2022-08-01T18:59:19.123Z,74.65
2022-08-01T19:01:48.586Z,75.25
2022-08-01T19:04:16.971Z,75.05
2022-08-01T19:06:47.628Z,74.96
2022-08-01T19:09:20.813Z,75.37
2022-08-01T19:11:49.963Z,75.78
2022-08-01T19:14:18.087Z,75.43
2022-08-01T19:16:46.182Z,75.78
2022-08-01T19:19:14.550Z,75.95
2022-08-01T19:21:56.075Z,75.61
2022-08-01T19:24:25.542Z,75.76
2022-08-01T19:26:56.732Z,76.24
2022-08-01T19:29:35.948Z,76.15
2022-08-01T19:32:07.011Z,76.35
2022-08-01T19:34:42.082Z,76.40
2022-08-01T19:37:11.096Z,76.55
2022-08-01T19:39:44.574Z,76.14
2022-08-01T19:42:13.587Z,76.25
2022-08-01T19:44:42.956Z,75.91
2022-08-01T19:47:14.704Z,76.04
2022-08-01T19:49:43.804Z,76.00
2022-08-01T19:52:13.738Z,75.89
2022-08-01T19:54:45.717Z,75.97
2022-08-01T19:57:16.076Z,76.00
2022-08-01T19:59:47.247Z,76.09
2022-08-01T20:02:20.793Z,75.94
2022-08-01T20:04:49.367Z,75.86
2022-08-01T20:07:17.442Z,76.21
2022-08-01T20:09:48.450Z,76.40
2022-08-01T20:12:21.268Z,76.38
2022-08-01T20:14:53.926Z,76.48
2022-08-01T20:17:24.042Z,76.48
2022-08-01T20:19:53.020Z,76.56
2022-08-01T20:22:30.505Z,76.91
2022-08-01T20:25:00.396Z,76.90
2022-08-01T20:27:34.682Z,77.10
2022-08-01T20:30:04.167Z,77.17
2022-08-01T20:32:34.984Z,77.63
2022-08-01T20:35:03.855Z,77.49
2022-08-01T20:38:05.708Z,77.68
2022-08-01T20:40:26.637Z,77.48
2022-08-01T20:42:56.871Z,77.67
2022-08-01T20:45:26.850Z,77.43
2022-08-01T20:47:56.398Z,77.54
2022-08-01T20:50:53.102Z,77.60
2022-08-01T20:53:24.430Z,77.86
2022-08-01T20:56:28.281Z,77.93
2022-08-01T20:59:05.817Z,77.74
2022-08-01T21:01:45.394Z,77.92
2022-08-01T21:04:16.925Z,77.88
2022-08-01T21:06:54.208Z,78.43
2022-08-01T21:09:25.604Z,78.07
2022-08-01T21:12:05.090Z,78.13
2022-08-01T21:14:51.900Z,78.20
2022-08-01T21:17:37.007Z,78.43
2022-08-01T21:20:09.807Z,78.38
2022-08-01T21:22:48.447Z,78.48
2022-08-01T21:25:23.224Z,78.48
2022-08-01T21:27:53.105Z,78.73
2022-08-01T21:30:25.385Z,79.27
2022-08-01T21:32:54.910Z,79.13
2022-08-01T21:35:26.273Z,79.03
2022-08-01T21:37:58.287Z,79.34
2022-08-01T21:40:26.670Z,79.27
2022-08-01T21:42:55.543Z,79.54
2022-08-01T21:45:27.419Z,79.54
2022-08-01T21:47:57.632Z,79.95
2022-08-01T21:50:26.390Z,79.90
2022-08-01T21:53:07.732Z,80.13
2022-08-01T21:55:57.096Z,80.12
2022-08-01T21:58:29.454Z,80.16
2022-08-01T22:01:23.501Z,80.42
2022-08-01T22:03:54.017Z,80.32
2022-08-01T22:06:24.120Z,80.27
2022-08-01T22:08:53.976Z,80.66
2022-08-01T22:11:33.913Z,80.62
2022-08-01T22:14:06.233Z,80.89
2022-08-01T22:16:40.928Z,81.34
2022-08-01T22:19:09.815Z,81.32
2022-08-01T22:21:57.871Z,81.33
2022-08-01T22:24:26.338Z,81.26
2022-08-01T22:26:56.071Z,81.77
2022-08-01T22:29:31.471Z,81.60
2022-08-01T22:31:59.844Z,81.77
2022-08-01T22:34:28.392Z,81.65
2022-08-01T22:36:57.420Z,81.58
2022-08-01T22:39:26.490Z,81.70
2022-08-01T22:42:02.587Z,81.67
2022-08-01T22:44:48.324Z,82.21
2022-08-01T22:47:30.110Z,82.46
2022-08-01T22:50:05.345Z,82.43
2022-08-01T22:52:42.666Z,82.76
2022-08-01T22:55:11.631Z,82.77
2022-08-01T22:57:50.244Z,82.47
2022-08-01T23:00:19.548Z,82.99
2022-08-01T23:02:54.162Z,82.94
2022-08-01T23:05:25.172Z,83.07
2022-08-01T23:07:55.195Z,83.30
2022-08-01T23:10:26.568Z,83.50
2022-08-01T23:12:55.985Z,83.23
2022-08-01T23:15:24.648Z,83.07
2022-08-01T23:17:55.503Z,83.42
2022-08-01T23:20:24.134Z,83.10
2022-08-01T23:22:53.763Z,83.20
2022-08-01T23:25:24.001Z,83.30
2022-08-01T23:28:05.899Z,83.22
2022-08-01T23:30:35.402Z,83.32
2022-08-01T23:33:04.411Z,83.38
2022-08-01T23:35:35.428Z,83.42
2022-08-01T23:38:11.064Z,83.74
2022-08-01T23:40:38.818Z,83.40
2022-08-01T23:43:16.620Z,83.71
2022-08-01T23:46:04.098Z,83.55
2022-08-01T23:48:34.443Z,83.82
2022-08-01T23:51:04.332Z,83.72
2022-08-01T23:53:36.062Z,83.96
2022-08-01T23:56:07.308Z,83.90
2022-08-01T23:58:35.263Z,83.76
